Time;durP1;ratioP1;P1;durP2;ratioP2;P2;SDS_P1;SDS_P2;PMS_P1;PMS_P2;Temp;Humidity;BMP_temperature;BMP_pressure;BME280_temperature;BME280_humidity;BME280_pressure;Samples;Min_cycle;Max_cycle;Signal;HPM_P1;HPM_P2
2022/04/25 00:02:16;;;;;;;6.17;4.37;;;;;;;;;;5055400;28;20208;-67
2022/04/25 00:04:42;;;;;;;4.90;3.80;;;;;;;;;;5037899;28;20269;-66
2022/04/25 00:07:08;;;;;;;5.23;3.03;;;;;;;;;;5038274;28;20183;-65
2022/04/25 00:09:34;;;;;;;5.10;3.17;;;;;;;;;;5038012;28;20255;-65
2022/04/25 00:12:00;;;;;;;2.80;2.57;;;;;;;;;;5038002;28;20650;-67
2022/04/25 00:14:26;;;;;;;5.93;3.30;;;;;;;;;;5037492;28;20186;-66
2022/04/25 00:16:56;;;;;;;5.33;3.67;;;;;;;;;;5055629;28;20189;-67
2022/04/25 00:19:22;;;;;;;3.90;3.50;;;;;;;;;;5055178;28;20255;-67
2022/04/25 00:21:48;;;;;;;4.73;3.93;;;;;;;;;;5036749;28;20206;-67
2022/04/25 00:24:14;;;;;;;3.73;3.43;;;;;;;;;;5054893;28;20558;-67
2022/04/25 00:26:40;;;;;;;3.57;3.27;;;;;;;;;;5037210;28;20182;-67
2022/04/25 00:29:06;;;;;;;4.40;4.00;;;;;;;;;;5036711;28;20186;-67
2022/04/25 00:31:32;;;;;;;4.30;3.73;;;;;;;;;;5054631;28;20277;-68
2022/04/25 00:33:58;;;;;;;3.43;3.13;;;;;;;;;;5054471;28;20616;-67
2022/04/25 00:36:24;;;;;;;3.73;3.20;;;;;;;;;;5054430;28;20197;-67
2022/04/25 00:38:50;;;;;;;5.10;3.27;;;;;;;;;;5054289;28;20209;-67
2022/04/25 00:41:16;;;;;;;7.07;3.63;;;;;;;;;;5036325;28;20294;-66
2022/04/25 00:43:42;;;;;;;5.63;3.93;;;;;;;;;;5036474;28;20754;-67
2022/04/25 00:46:19;;;;;;;4.40;3.87;;;;;;;;;;5036444;28;20296;-66
2022/04/25 00:48:45;;;;;;;8.07;4.50;;;;;;;;;;5054455;28;20674;-67
2022/04/25 00:51:11;;;;;;;4.30;3.73;;;;;;;;;;5053986;28;20239;-66
2022/04/25 00:53:38;;;;;;;4.90;4.00;;;;;;;;;;5036179;28;20189;-68
2022/04/25 00:56:04;;;;;;;5.23;4.30;;;;;;;;;;5036170;28;20269;-68
2022/04/25 00:58:30;;;;;;;5.03;4.27;;;;;;;;;;5036088;28;20200;-68
2022/04/25 01:00:56;;;;;;;5.03;4.50;;;;;;;;;;5053522;28;20230;-66
2022/04/25 01:03:22;;;;;;;5.53;4.63;;;;;;;;;;5035464;28;20647;-66
2022/04/25 01:05:48;;;;;;;6.37;4.40;;;;;;;;;;5053996;28;20182;-66
2022/04/25 01:08:14;;;;;;;7.70;4.70;;;;;;;;;;5053739;28;20174;-66
2022/04/25 01:10:40;;;;;;;6.00;5.07;;;;;;;;;;5053768;28;20205;-66
2022/04/25 01:13:06;;;;;;;5.80;4.77;;;;;;;;;;5053979;28;20179;-67
2022/04/25 01:15:32;;;;;;;4.73;3.80;;;;;;;;;;5035924;28;20269;-67
2022/04/25 01:17:58;;;;;;;5.40;4.30;;;;;;;;;;5053688;28;20231;-67
2022/04/25 01:20:24;;;;;;;5.50;4.73;;;;;;;;;;5053568;28;20194;-67
2022/04/25 01:22:54;;;;;;;9.67;5.40;;;;;;;;;;5053433;28;20692;-67
2022/04/25 01:28:05;;;;;;;5.50;4.90;;;;;;;;;;5053541;28;20618;-67
2022/04/25 01:30:32;;;;;;;7.33;4.57;;;;;;;;;;5035441;28;20247;-67
2022/04/25 01:32:58;;;;;;;6.23;4.47;;;;;;;;;;5053591;28;20179;-67
2022/04/25 01:35:24;;;;;;;5.70;4.77;;;;;;;;;;5053388;28;20183;-67
2022/04/25 01:37:50;;;;;;;6.67;4.90;;;;;;;;;;5035503;28;20272;-67
2022/04/25 01:40:16;;;;;;;5.00;4.50;;;;;;;;;;5053200;28;20237;-67
2022/04/25 01:42:43;;;;;;;5.23;4.50;;;;;;;;;;5035687;28;20295;-68
2022/04/25 01:45:09;;;;;;;3.80;3.40;;;;;;;;;;5053784;28;20170;-67
2022/04/25 01:47:37;;;;;;;4.17;3.30;;;;;;;;;;5035377;28;20189;-68
2022/04/25 01:50:03;;;;;;;4.20;3.80;;;;;;;;;;5053129;28;20208;-66
2022/04/25 01:52:33;;;;;;;4.97;3.47;;;;;;;;;;5053169;28;20224;-67
2022/04/25 01:55:01;;;;;;;4.17;3.50;;;;;;;;;;5053146;28;20650;-68
2022/04/25 01:57:28;;;;;;;3.60;3.10;;;;;;;;;;5035319;28;20179;-68
2022/04/25 01:59:54;;;;;;;3.70;3.20;;;;;;;;;;5035079;28;20210;-67
2022/04/25 02:02:22;;;;;;;5.67;3.37;;;;;;;;;;5035103;28;20542;-68
2022/04/25 02:04:48;;;;;;;3.90;3.53;;;;;;;;;;5053046;28;20686;-67
2022/04/25 02:07:14;;;;;;;4.83;3.10;;;;;;;;;;5035070;28;20273;-67
2022/04/25 02:09:40;;;;;;;3.80;3.40;;;;;;;;;;5053452;28;20198;-68
2022/04/25 02:12:06;;;;;;;4.43;3.20;;;;;;;;;;5035189;28;20565;-67
2022/04/25 02:14:33;;;;;;;3.40;2.77;;;;;;;;;;5052932;28;20213;-68
2022/04/25 02:16:59;;;;;;;4.00;3.43;;;;;;;;;;5056286;28;20265;-67
2022/04/25 02:19:29;;;;;;;4.27;3.10;;;;;;;;;;5056820;28;20179;-67
2022/04/25 02:21:56;;;;;;;3.17;2.87;;;;;;;;;;5038852;28;20217;-67
2022/04/25 02:24:22;;;;;;;3.30;2.97;;;;;;;;;;5039705;28;20171;-68
2022/04/25 02:26:49;;;;;;;3.73;3.40;;;;;;;;;;5056925;28;20702;-68
2022/04/25 02:29:15;;;;;;;4.20;3.23;;;;;;;;;;5038646;28;20178;-68
2022/04/25 02:31:42;;;;;;;3.03;2.83;;;;;;;;;;5038830;28;20654;-67
2022/04/25 02:34:08;;;;;;;3.90;3.07;;;;;;;;;;5038759;28;20603;-67
2022/04/25 02:36:35;;;;;;;6.13;3.67;;;;;;;;;;5038838;28;20228;-68
2022/04/25 02:39:01;;;;;;;3.50;2.80;;;;;;;;;;5038751;28;20602;-67
2022/04/25 02:41:27;;;;;;;4.63;3.40;;;;;;;;;;5038521;28;20577;-69
2022/04/25 02:43:53;;;;;;;4.23;3.20;;;;;;;;;;5038641;28;20189;-68
2022/04/25 02:46:18;;;;;;;3.93;3.30;;;;;;;;;;5056436;28;20638;-67
2022/04/25 02:48:45;;;;;;;5.63;3.13;;;;;;;;;;5038551;28;20262;-66
2022/04/25 02:51:12;;;;;;;4.27;3.53;;;;;;;;;;5038497;28;20202;-68
2022/04/25 02:53:38;;;;;;;3.30;3.00;;;;;;;;;;5056925;28;20170;-68
2022/04/25 02:56:05;;;;;;;3.63;3.33;;;;;;;;;;5038790;28;20178;-67
2022/04/25 02:58:32;;;;;;;3.97;3.20;;;;;;;;;;5056214;28;20230;-68
2022/04/25 03:00:58;;;;;;;3.83;3.03;;;;;;;;;;5037939;28;20316;-68
2022/04/25 03:03:25;;;;;;;3.73;3.43;;;;;;;;;;5038153;28;20186;-67
2022/04/25 03:05:51;;;;;;;4.30;3.13;;;;;;;;;;5055999;28;20591;-67
2022/04/25 03:08:18;;;;;;;4.43;3.87;;;;;;;;;;5056284;28;20564;-68
2022/04/25 03:10:45;;;;;;;4.00;3.60;;;;;;;;;;5055974;28;20205;-66
2022/04/25 03:13:11;;;;;;;3.77;3.20;;;;;;;;;;5038029;28;20210;-65
2022/04/25 03:15:40;;;;;;;4.33;3.37;;;;;;;;;;5056136;28;20171;-67
2022/04/25 03:18:07;;;;;;;4.50;3.60;;;;;;;;;;5056101;28;20551;-68
2022/04/25 03:20:33;;;;;;;3.83;3.33;;;;;;;;;;5055842;28;20247;-68
2022/04/25 03:22:59;;;;;;;6.00;3.73;;;;;;;;;;5055624;28;20199;-68
2022/04/25 03:25:25;;;;;;;4.00;3.60;;;;;;;;;;5055946;28;20254;-67
2022/04/25 03:27:51;;;;;;;5.43;3.63;;;;;;;;;;5037149;28;20673;-68
2022/04/25 03:30:17;;;;;;;5.33;4.50;;;;;;;;;;5037626;28;20209;-67
2022/04/25 03:32:45;;;;;;;4.67;3.87;;;;;;;;;;5055612;28;20549;-67
2022/04/25 03:35:11;;;;;;;4.33;3.87;;;;;;;;;;5056014;28;20186;-66
2022/04/25 03:37:37;;;;;;;4.70;4.03;;;;;;;;;;5037561;28;20273;-67
2022/04/25 03:40:05;;;;;;;6.47;3.90;;;;;;;;;;5055245;28;20332;-67
2022/04/25 03:42:31;;;;;;;4.23;3.80;;;;;;;;;;5055468;28;20662;-67
2022/04/25 03:44:56;;;;;;;4.57;4.17;;;;;;;;;;5055518;28;20182;-67
2022/04/25 03:47:23;;;;;;;4.30;3.77;;;;;;;;;;5037347;28;20264;-68
2022/04/25 03:49:49;;;;;;;4.60;3.93;;;;;;;;;;5037248;28;20209;-67
2022/04/25 03:52:15;;;;;;;4.83;4.33;;;;;;;;;;5055229;28;20261;-67
2022/04/25 03:57:26;;;;;;;4.90;4.40;;;;;;;;;;5055303;28;20166;-68
2022/04/25 03:59:52;;;;;;;5.17;3.97;;;;;;;;;;5054970;28;20586;-67
2022/04/25 04:02:18;;;;;;;7.13;4.00;;;;;;;;;;5055490;28;20564;-67
2022/04/25 04:04:43;;;;;;;4.60;3.90;;;;;;;;;;5037202;28;20183;-67
2022/04/25 04:07:10;;;;;;;5.00;4.50;;;;;;;;;;5054926;28;20175;-67
2022/04/25 04:09:45;;;;;;;5.00;4.50;;;;;;;;;;5054997;28;20190;-67
2022/04/25 04:12:15;;;;;;;7.57;4.50;;;;;;;;;;5071184;22;20279;-66
2022/04/25 04:14:41;;;;;;;6.93;5.10;;;;;;;;;;5055189;28;20177;-66
2022/04/25 04:17:07;;;;;;;6.03;4.87;;;;;;;;;;5054923;28;20179;-66
2022/04/25 04:19:34;;;;;;;6.10;5.07;;;;;;;;;;5037056;28;20174;-66
2022/04/25 04:22:03;;;;;;;7.33;5.27;;;;;;;;;;5054721;28;20206;-66
2022/04/25 04:24:29;;;;;;;5.67;4.67;;;;;;;;;;5036889;28;20179;-66
2022/04/25 04:26:58;;;;;;;6.10;5.03;;;;;;;;;;5036772;28;20218;-66
2022/04/25 04:29:23;;;;;;;5.20;4.70;;;;;;;;;;5054737;28;20182;-66
2022/04/25 04:31:49;;;;;;;78.13;32.70;;;;;;;;;;5054778;28;20622;-66
2022/04/25 04:34:16;;;;;;;54.33;21.37;;;;;;;;;;5036756;28;20603;-66
2022/04/25 04:36:41;;;;;;;25.20;12.07;;;;;;;;;;5036554;28;20190;-66
2022/04/25 04:39:07;;;;;;;18.77;9.50;;;;;;;;;;5035743;28;20187;-66
2022/04/25 04:41:33;;;;;;;14.60;7.77;;;;;;;;;;5054134;28;20210;-66
2022/04/25 04:43:59;;;;;;;8.97;5.47;;;;;;;;;;5054362;28;20174;-66
2022/04/25 04:46:25;;;;;;;8.23;5.60;;;;;;;;;;5054457;28;20174;-66
2022/04/25 04:48:51;;;;;;;7.73;6.10;;;;;;;;;;5036349;28;20555;-66
2022/04/25 04:51:17;;;;;;;7.67;5.80;;;;;;;;;;5054272;28;20244;-66
2022/04/25 04:53:43;;;;;;;9.63;5.43;;;;;;;;;;5036284;28;20255;-66
2022/04/25 04:56:09;;;;;;;5.77;5.07;;;;;;;;;;5054026;28;20237;-66
2022/04/25 04:58:35;;;;;;;6.70;5.10;;;;;;;;;;5054063;28;20188;-65
2022/04/25 05:01:01;;;;;;;7.57;4.97;;;;;;;;;;5036021;28;20697;-66
2022/04/25 05:03:27;;;;;;;7.20;5.03;;;;;;;;;;5056164;28;20270;-66
2022/04/25 05:05:54;;;;;;;6.87;4.97;;;;;;;;;;5036893;28;20698;-66
2022/04/25 05:08:20;;;;;;;6.53;5.30;;;;;;;;;;5054720;28;20174;-66
2022/04/25 05:10:46;;;;;;;8.43;5.90;;;;;;;;;;5054609;28;20253;-66
2022/04/25 05:13:15;;;;;;;8.00;6.10;;;;;;;;;;5054322;28;20691;-66
2022/04/25 05:15:40;;;;;;;9.30;6.07;;;;;;;;;;5036497;28;20631;-66
2022/04/25 05:18:06;;;;;;;7.97;6.27;;;;;;;;;;5035933;28;20273;-66
2022/04/25 05:20:33;;;;;;;10.87;7.40;;;;;;;;;;5053944;28;20658;-66
2022/04/25 05:22:59;;;;;;;8.97;7.17;;;;;;;;;;5035711;28;20202;-67
2022/04/25 05:25:25;;;;;;;8.80;6.93;;;;;;;;;;5053698;28;20179;-66
2022/04/25 05:27:53;;;;;;;8.37;7.03;;;;;;;;;;5035625;28;20182;-66
2022/04/25 05:30:20;;;;;;;7.93;6.83;;;;;;;;;;5053706;28;20186;-67
2022/04/25 05:32:53;;;;;;;9.53;7.37;;;;;;;;;;5053376;28;20206;-66
2022/04/25 05:35:21;;;;;;;8.20;7.37;;;;;;;;;;5053281;28;20652;-66
2022/04/25 05:37:47;;;;;;;9.53;7.13;;;;;;;;;;5053403;28;20183;-66
2022/04/25 05:40:14;;;;;;;8.83;7.47;;;;;;;;;;5053477;28;20178;-66
2022/04/25 05:42:41;;;;;;;10.53;7.97;;;;;;;;;;5053176;28;20206;-66
2022/04/25 05:45:07;;;;;;;7.67;6.87;;;;;;;;;;5053370;28;20189;-66
2022/04/25 05:47:34;;;;;;;10.40;8.37;;;;;;;;;;5053213;28;20202;-67
2022/04/25 05:52:45;;;;;;;9.87;7.87;;;;;;;;;;5053304;28;20209;-66
2022/04/25 05:55:11;;;;;;;13.63;9.17;;;;;;;;;;5053350;28;20186;-66
2022/04/25 05:57:37;;;;;;;16.23;10.13;;;;;;;;;;5053362;28;20584;-66
2022/04/25 06:00:05;;;;;;;12.87;9.60;;;;;;;;;;5053189;28;20178;-66
2022/04/25 06:02:31;;;;;;;14.87;10.47;;;;;;;;;;5035562;28;20214;-66
2022/04/25 06:04:57;;;;;;;14.57;11.37;;;;;;;;;;5053993;28;20257;-66
2022/04/25 06:07:23;;;;;;;14.73;11.00;;;;;;;;;;5035300;28;20186;-66
2022/04/25 06:09:49;;;;;;;13.63;11.33;;;;;;;;;;5035592;28;20244;-66
2022/04/25 06:12:15;;;;;;;14.17;10.80;;;;;;;;;;5053173;28;20686;-66
2022/04/25 06:14:41;;;;;;;16.03;11.90;;;;;;;;;;5035857;28;20178;-66
2022/04/25 06:17:07;;;;;;;14.13;10.67;;;;;;;;;;5055014;28;20182;-67
2022/04/25 06:19:33;;;;;;;15.40;10.97;;;;;;;;;;5039886;28;20190;-69
2022/04/25 06:21:59;;;;;;;14.33;11.23;;;;;;;;;;5060698;28;20213;-67
2022/04/25 06:24:26;;;;;;;14.77;11.27;;;;;;;;;;5044100;28;20178;-67
2022/04/25 06:26:52;;;;;;;13.80;10.93;;;;;;;;;;5058150;28;20175;-66
2022/04/25 06:29:18;;;;;;;13.67;10.57;;;;;;;;;;5056847;28;20175;-66
2022/04/25 06:31:44;;;;;;;16.00;11.20;;;;;;;;;;5036096;28;20202;-66
2022/04/25 06:34:10;;;;;;;14.30;11.40;;;;;;;;;;5053992;28;20182;-66
2022/04/25 06:36:36;;;;;;;14.37;11.37;;;;;;;;;;5035421;28;20193;-66
2022/04/25 06:39:03;;;;;;;17.37;12.40;;;;;;;;;;5053299;28;20706;-66
2022/04/25 06:41:30;;;;;;;13.70;11.30;;;;;;;;;;5052797;28;20272;-66
2022/04/25 06:43:57;;;;;;;18.83;12.83;;;;;;;;;;5035122;28;20186;-66
2022/04/25 06:46:23;;;;;;;16.73;12.47;;;;;;;;;;5053100;28;20171;-66
2022/04/25 06:51:34;;;;;;;16.53;12.20;;;;;;;;;;5052968;28;20209;-67
2022/04/25 06:54:00;;;;;;;16.87;12.13;;;;;;;;;;5053457;28;20186;-65
2022/04/25 06:56:26;;;;;;;13.63;11.30;;;;;;;;;;5035117;28;20277;-65
2022/04/25 06:58:51;;;;;;;15.87;12.13;;;;;;;;;;5035059;28;20190;-65
2022/04/25 07:01:17;;;;;;;17.73;12.10;;;;;;;;;;5035198;28;20214;-65
2022/04/25 07:03:43;;;;;;;15.27;12.20;;;;;;;;;;5056965;28;20202;-65
2022/04/25 07:06:09;;;;;;;12.83;11.23;;;;;;;;;;5056422;28;20175;-66
2022/04/25 07:08:35;;;;;;;15.10;11.43;;;;;;;;;;5038695;28;20186;-64
2022/04/25 07:11:01;;;;;;;17.17;11.93;;;;;;;;;;5038374;28;20210;-65
2022/04/25 07:13:27;;;;;;;15.20;11.70;;;;;;;;;;5056536;28;20174;-66
2022/04/25 07:15:53;;;;;;;13.47;11.40;;;;;;;;;;5038756;28;20174;-67
2022/04/25 07:18:19;;;;;;;13.50;11.43;;;;;;;;;;5056174;28;20572;-65
2022/04/25 07:20:45;;;;;;;13.37;10.47;;;;;;;;;;5038228;28;20221;-65
2022/04/25 07:28:57;;;;;;;18.23;11.10;;;;;;;;;;5032569;28;20712;-67
2022/04/25 07:31:23;;;;;;;12.23;9.83;;;;;;;;;;5055854;28;20194;-67
2022/04/25 07:33:50;;;;;;;12.00;9.67;;;;;;;;;;5037816;28;20273;-66
2022/04/25 07:36:17;;;;;;;13.63;10.37;;;;;;;;;;5056127;28;20589;-65
2022/04/25 07:38:44;;;;;;;11.67;9.47;;;;;;;;;;5055647;28;20559;-65
2022/04/25 07:41:10;;;;;;;12.13;9.87;;;;;;;;;;5037947;28;20202;-66
2022/04/25 07:43:36;;;;;;;12.77;11.13;;;;;;;;;;5037620;28;20182;-66
2022/04/25 07:46:02;;;;;;;13.57;10.20;;;;;;;;;;5055514;28;20190;-67
2022/04/25 07:48:28;;;;;;;10.67;9.57;;;;;;;;;;5037659;28;20175;-66
2022/04/25 07:50:54;;;;;;;13.57;10.40;;;;;;;;;;5037465;28;20202;-66
2022/04/25 07:53:20;;;;;;;12.17;10.50;;;;;;;;;;5055611;28;20197;-65
2022/04/25 07:55:46;;;;;;;12.50;10.50;;;;;;;;;;5055743;28;20175;-66
2022/04/25 07:58:12;;;;;;;16.13;11.33;;;;;;;;;;5055168;28;20559;-66
2022/04/25 08:00:41;;;;;;;13.10;11.03;;;;;;;;;;5055052;28;20170;-66
2022/04/25 08:03:08;;;;;;;15.63;10.83;;;;;;;;;;5055370;28;20206;-66
2022/04/25 08:05:34;;;;;;;13.00;10.97;;;;;;;;;;5055078;28;20257;-66
2022/04/25 08:08:00;;;;;;;12.37;10.33;;;;;;;;;;5054922;28;20210;-66
2022/04/25 08:10:26;;;;;;;13.80;10.70;;;;;;;;;;5037120;28;20179;-66
2022/04/25 08:18:20;;;;;;;12.83;10.97;;;;;;;;;;5055065;28;20174;-65
2022/04/25 08:20:47;;;;;;;11.80;10.03;;;;;;;;;;5054988;28;20194;-66
2022/04/25 08:23:13;;;;;;;10.60;9.07;;;;;;;;;;5054913;28;20198;-66
2022/04/25 08:25:40;;;;;;;12.03;9.60;;;;;;;;;;5054702;28;20228;-66
2022/04/25 08:28:06;;;;;;;11.67;9.60;;;;;;;;;;5036783;28;20603;-66
2022/04/25 08:30:33;;;;;;;11.23;9.20;;;;;;;;;;5054702;28;20224;-65
2022/04/25 08:32:59;;;;;;;11.67;9.03;;;;;;;;;;5036694;28;20224;-65
2022/04/25 08:35:25;;;;;;;11.43;9.50;;;;;;;;;;5054550;28;20216;-66
2022/04/25 08:37:52;;;;;;;13.43;9.10;;;;;;;;;;5054284;28;20706;-66
2022/04/25 08:40:18;;;;;;;13.40;9.67;;;;;;;;;;5036706;28;20190;-66
2022/04/25 08:42:44;;;;;;;11.80;9.73;;;;;;;;;;5054364;28;20213;-66
2022/04/25 08:45:10;;;;;;;11.77;9.57;;;;;;;;;;5054247;28;20634;-66
2022/04/25 08:47:53;;;;;;;11.57;9.73;;;;;;;;;;5036442;28;20179;-66
2022/04/25 08:50:19;;;;;;;11.37;9.60;;;;;;;;;;5054330;28;20167;-67
2022/04/25 08:52:46;;;;;;;12.37;10.00;;;;;;;;;;5054221;28;20209;-66
2022/04/25 08:55:12;;;;;;;12.80;10.80;;;;;;;;;;5054258;28;20181;-66
2022/04/25 08:57:38;;;;;;;14.37;12.07;;;;;;;;;;5053920;28;20191;-66
2022/04/25 09:00:05;;;;;;;15.67;12.17;;;;;;;;;;5036050;28;20186;-66
2022/04/25 09:02:33;;;;;;;14.37;12.37;;;;;;;;;;5035961;28;20256;-66
2022/04/25 09:04:59;;;;;;;14.63;11.47;;;;;;;;;;5053770;28;20170;-66
2022/04/25 09:07:25;;;;;;;13.10;11.33;;;;;;;;;;5036105;28;20660;-66
2022/04/25 09:09:51;;;;;;;13.80;11.20;;;;;;;;;;5054145;28;20621;-66
2022/04/25 09:12:17;;;;;;;14.93;12.20;;;;;;;;;;5053738;28;20701;-66
2022/04/25 09:14:44;;;;;;;16.03;13.00;;;;;;;;;;5036067;28;20182;-66
2022/04/25 09:17:10;;;;;;;16.47;13.43;;;;;;;;;;5035943;28;20293;-66
2022/04/25 09:19:37;;;;;;;15.50;12.13;;;;;;;;;;5053653;28;20650;-66
2022/04/25 09:22:04;;;;;;;16.47;12.57;;;;;;;;;;5053467;28;20206;-66
2022/04/25 09:24:34;;;;;;;17.33;14.10;;;;;;;;;;5053048;28;20175;-66
2022/04/25 09:27:08;;;;;;;18.43;13.57;;;;;;;;;;5053559;28;20526;-66
2022/04/25 09:29:36;;;;;;;19.97;13.87;;;;;;;;;;5035724;28;20178;-66
2022/04/25 09:32:02;;;;;;;21.17;15.47;;;;;;;;;;5053875;28;20194;-66
2022/04/25 09:37:14;;;;;;;18.07;13.10;;;;;;;;;;5053728;28;20268;-66
2022/04/25 09:39:40;;;;;;;19.67;14.80;;;;;;;;;;5053625;28;20178;-68
2022/04/25 09:42:07;;;;;;;19.17;12.97;;;;;;;;;;5053243;28;20206;-67
2022/04/25 09:44:53;;;;;;;22.00;13.77;;;;;;;;;;5053328;28;20598;-67
2022/04/25 09:47:32;;;;;;;18.27;13.23;;;;;;;;;;5035370;28;20178;-67
2022/04/25 09:50:03;;;;;;;17.63;13.87;;;;;;;;;;5053138;28;20180;-67
2022/04/25 09:52:29;;;;;;;17.13;13.60;;;;;;;;;;5053192;28;20646;-67
2022/04/25 09:54:58;;;;;;;17.23;13.07;;;;;;;;;;5053077;28;20178;-67
2022/04/25 09:57:31;;;;;;;16.10;12.27;;;;;;;;;;5035296;28;20186;-67
2022/04/25 09:59:57;;;;;;;15.27;11.97;;;;;;;;;;5053320;28;20205;-67
2022/04/25 10:02:23;;;;;;;16.10;11.77;;;;;;;;;;5053006;28;20211;-67
2022/04/25 10:04:49;;;;;;;16.53;11.67;;;;;;;;;;5053245;28;20185;-67
2022/04/25 10:07:15;;;;;;;15.93;11.97;;;;;;;;;;5035113;28;20267;-67
2022/04/25 10:09:44;;;;;;;15.53;12.30;;;;;;;;;;5053057;28;20227;-67
2022/04/25 10:12:10;;;;;;;15.10;12.43;;;;;;;;;;5052802;28;20221;-67
2022/04/25 10:17:12;;;;;;;14.17;11.87;;;;;;;;;;5071999;22;20236;-66
2022/04/25 10:19:38;;;;;;;17.87;12.00;;;;;;;;;;5037009;28;20175;-66
2022/04/25 10:22:05;;;;;;;15.93;12.40;;;;;;;;;;5053734;28;20194;-66
2022/04/25 10:24:32;;;;;;;16.23;12.77;;;;;;;;;;5053847;28;20182;-66
2022/04/25 10:27:02;;;;;;;20.63;12.90;;;;;;;;;;5053821;28;20194;-66
2022/04/25 10:29:34;;;;;;;16.63;12.57;;;;;;;;;;5053857;28;20198;-65
2022/04/25 10:32:01;;;;;;;18.47;14.50;;;;;;;;;;5053893;28;20178;-65
2022/04/25 10:34:46;;;;;;;17.57;13.10;;;;;;;;;;5053535;28;20193;-66
2022/04/25 10:37:30;;;;;;;18.83;14.83;;;;;;;;;;5055332;28;20265;-65
2022/04/25 10:39:57;;;;;;;21.67;14.80;;;;;;;;;;5057733;28;20175;-66
2022/04/25 10:45:09;;;;;;;18.43;13.70;;;;;;;;;;5058086;28;20205;-67
2022/04/25 10:47:35;;;;;;;16.40;12.80;;;;;;;;;;5058420;28;20162;-65
2022/04/25 10:50:08;;;;;;;15.87;12.27;;;;;;;;;;5058091;28;20178;-65
2022/04/25 10:52:34;;;;;;;20.20;14.43;;;;;;;;;;5058294;28;20187;-67
2022/04/25 10:55:13;;;;;;;17.20;13.60;;;;;;;;;;5057934;28;20182;-63
2022/04/25 10:57:58;;;;;;;17.33;13.73;;;;;;;;;;5058525;28;20260;-64
2022/04/25 11:00:36;;;;;;;22.07;14.27;;;;;;;;;;5057574;28;20183;-65
2022/04/25 11:03:04;;;;;;;17.23;13.67;;;;;;;;;;5039740;28;20202;-62
2022/04/25 11:05:30;;;;;;;17.40;13.80;;;;;;;;;;5039669;28;20205;-66
2022/04/25 11:08:15;;;;;;;17.87;14.27;;;;;;;;;;5057468;28;20253;-62
2022/04/25 11:10:43;;;;;;;20.37;14.27;;;;;;;;;;5058169;28;20642;-67
2022/04/25 11:13:09;;;;;;;17.73;14.17;;;;;;;;;;5060510;28;20175;-63
2022/04/25 11:15:43;;;;;;;19.03;14.40;;;;;;;;;;5061064;28;20214;-66
2022/04/25 11:18:34;;;;;;;17.77;14.93;;;;;;;;;;5044669;28;20178;-64
2022/04/25 11:21:12;;;;;;;18.00;14.93;;;;;;;;;;5059550;28;20240;-64
2022/04/25 11:23:44;;;;;;;23.17;16.33;;;;;;;;;;5059350;28;20166;-65
2022/04/25 11:26:36;;;;;;;22.03;15.80;;;;;;;;;;5057662;28;20230;-63
2022/04/25 11:29:08;;;;;;;19.83;14.93;;;;;;;;;;5002649;28;20727;-65
2022/04/25 11:31:35;;;;;;;19.40;15.53;;;;;;;;;;5057448;28;20175;-63
2022/04/25 11:34:02;;;;;;;23.57;17.23;;;;;;;;;;5057345;28;20178;-65
2022/04/25 11:36:29;;;;;;;19.47;15.03;;;;;;;;;;5038620;28;20248;-65
2022/04/25 11:41:40;;;;;;;22.57;16.80;;;;;;;;;;5056974;28;20693;-66
2022/04/25 11:44:07;;;;;;;20.93;14.90;;;;;;;;;;5056372;28;20197;-64
2022/04/25 11:46:34;;;;;;;19.47;14.10;;;;;;;;;;5056670;28;20555;-64
2022/04/25 11:49:00;;;;;;;23.90;16.30;;;;;;;;;;5037896;28;20667;-65
2022/04/25 11:51:29;;;;;;;19.33;15.53;;;;;;;;;;5056549;28;20246;-65
2022/04/25 11:53:59;;;;;;;17.87;14.13;;;;;;;;;;5056236;28;20207;-65
2022/04/25 11:56:29;;;;;;;19.70;15.77;;;;;;;;;;5038814;28;20202;-65
2022/04/25 11:58:57;;;;;;;19.30;15.07;;;;;;;;;;5038863;28;20622;-66
2022/04/25 12:01:36;;;;;;;21.23;15.83;;;;;;;;;;5056282;28;20255;-65
2022/04/25 12:04:16;;;;;;;21.90;15.53;;;;;;;;;;5056322;28;20650;-66
2022/04/25 12:06:47;;;;;;;22.27;15.27;;;;;;;;;;5037848;28;20201;-64
2022/04/25 12:17:36;;;;;;;19.27;14.07;;;;;;;;;;5056153;28;20191;-66
2022/04/25 12:20:04;;;;;;;19.57;13.33;;;;;;;;;;5055927;28;20195;-66
2022/04/25 12:22:30;;;;;;;15.73;12.30;;;;;;;;;;5055490;28;20769;-65
2022/04/25 12:25:33;;;;;;;15.97;13.27;;;;;;;;;;5055489;28;20197;-66
2022/04/25 12:28:01;;;;;;;17.70;13.23;;;;;;;;;;4958816;28;20180;-66
2022/04/25 12:30:28;;;;;;;19.53;14.20;;;;;;;;;;5041671;28;20197;-66
2022/04/25 12:33:07;;;;;;;17.43;13.80;;;;;;;;;;5055392;28;20171;-66
2022/04/25 12:35:33;;;;;;;15.50;12.30;;;;;;;;;;5056042;28;20244;-66
2022/04/25 12:38:00;;;;;;;17.33;12.77;;;;;;;;;;5037238;28;20188;-66
2022/04/25 12:40:26;;;;;;;13.20;10.40;;;;;;;;;;5055017;28;20182;-66
2022/04/25 12:42:54;;;;;;;12.40;10.47;;;;;;;;;;5055191;28;20678;-65
2022/04/25 12:45:20;;;;;;;10.53;9.40;;;;;;;;;;5055038;28;20199;-65
2022/04/25 12:47:54;;;;;;;11.83;10.37;;;;;;;;;;5054935;28;20232;-66
2022/04/25 12:50:38;;;;;;;14.63;10.73;;;;;;;;;;5055628;28;20163;-66
2022/04/25 12:53:06;;;;;;;12.70;10.97;;;;;;;;;;5037170;28;20217;-65
2022/04/25 12:55:45;;;;;;;14.80;12.00;;;;;;;;;;5055219;28;20202;-66
2022/04/25 12:58:11;;;;;;;13.27;10.90;;;;;;;;;;5036978;28;20192;-66
2022/04/25 13:00:41;;;;;;;18.47;10.70;;;;;;;;;;5036192;28;20278;-65
2022/04/25 13:03:08;;;;;;;13.57;11.53;;;;;;;;;;5036804;28;20203;-65
2022/04/25 13:05:34;;;;;;;15.17;11.77;;;;;;;;;;5037143;28;20570;-66
2022/04/25 13:08:01;;;;;;;14.87;11.67;;;;;;;;;;5054949;28;20186;-65
2022/04/25 13:10:27;;;;;;;12.47;11.17;;;;;;;;;;5055020;28;20646;-65
2022/04/25 13:12:56;;;;;;;12.53;11.27;;;;;;;;;;5037337;28;20273;-66
2022/04/25 13:15:27;;;;;;;16.10;12.50;;;;;;;;;;5036867;28;20580;-65
2022/04/25 13:17:54;;;;;;;16.67;11.90;;;;;;;;;;5054582;28;20185;-66
2022/04/25 13:20:21;;;;;;;14.03;11.50;;;;;;;;;;5054853;28;20697;-66
2022/04/25 13:22:48;;;;;;;15.80;12.20;;;;;;;;;;5053925;28;20208;-66
2022/04/25 13:25:15;;;;;;;16.20;11.87;;;;;;;;;;5053681;28;20655;-65
2022/04/25 13:27:41;;;;;;;14.10;11.10;;;;;;;;;;5054450;28;20177;-66
2022/04/25 13:30:09;;;;;;;12.37;11.07;;;;;;;;;;5054687;28;20171;-65
2022/04/25 13:32:36;;;;;;;12.70;11.33;;;;;;;;;;5036794;28;20244;-67
2022/04/25 13:35:02;;;;;;;13.47;11.03;;;;;;;;;;5036401;28;20178;-66
2022/04/25 13:37:30;;;;;;;13.77;11.30;;;;;;;;;;5054686;28;20525;-64
2022/04/25 13:39:56;;;;;;;13.93;11.43;;;;;;;;;;5053875;28;20234;-65
2022/04/25 13:42:22;;;;;;;14.50;12.30;;;;;;;;;;5054463;28;20202;-65
2022/04/25 13:44:48;;;;;;;13.60;11.83;;;;;;;;;;5056210;28;20179;-66
2022/04/25 13:47:14;;;;;;;15.03;11.13;;;;;;;;;;5054661;28;20555;-65
2022/04/25 13:49:40;;;;;;;13.17;10.73;;;;;;;;;;5053769;28;20174;-65
2022/04/25 13:52:06;;;;;;;14.13;10.33;;;;;;;;;;5053631;28;20629;-65
2022/04/25 13:54:33;;;;;;;12.83;10.70;;;;;;;;;;5053791;28;20677;-65
2022/04/25 13:56:59;;;;;;;11.40;9.97;;;;;;;;;;5053402;28;20277;-65
2022/04/25 13:59:25;;;;;;;11.87;9.97;;;;;;;;;;5053691;28;20174;-65
2022/04/25 14:01:51;;;;;;;13.47;10.47;;;;;;;;;;5036352;28;20206;-65
2022/04/25 14:04:17;;;;;;;13.57;10.70;;;;;;;;;;5054230;28;20178;-65
2022/04/25 14:06:44;;;;;;;11.83;10.23;;;;;;;;;;5054121;28;20569;-66
2022/04/25 14:09:10;;;;;;;12.53;10.63;;;;;;;;;;5036346;28;20186;-63
2022/04/25 14:11:36;;;;;;;11.70;10.37;;;;;;;;;;5038714;28;20178;-65
2022/04/25 14:14:02;;;;;;;13.17;10.87;;;;;;;;;;5058178;28;20182;-65
2022/04/25 14:16:28;;;;;;;16.30;11.90;;;;;;;;;;5040405;28;20589;-65
2022/04/25 14:18:54;;;;;;;14.77;11.13;;;;;;;;;;5040749;28;20178;-65
2022/04/25 14:21:20;;;;;;;12.27;10.73;;;;;;;;;;5042617;28;20222;-65
2022/04/25 14:23:46;;;;;;;14.30;11.57;;;;;;;;;;5042113;28;20179;-65
2022/04/25 14:26:13;;;;;;;15.07;11.17;;;;;;;;;;5058232;28;20194;-65
2022/04/25 14:28:39;;;;;;;13.43;11.00;;;;;;;;;;5058441;28;20210;-64
2022/04/25 14:31:05;;;;;;;15.37;11.27;;;;;;;;;;5057878;28;20179;-65
2022/04/25 14:33:31;;;;;;;12.43;10.90;;;;;;;;;;5040810;28;20308;-65
2022/04/25 14:35:58;;;;;;;14.17;10.20;;;;;;;;;;5058250;28;20202;-66
2022/04/25 14:38:24;;;;;;;12.90;10.20;;;;;;;;;;5040016;28;20236;-65
2022/04/25 14:40:54;;;;;;;10.90;9.80;;;;;;;;;;5057694;28;20658;-65
2022/04/25 14:43:20;;;;;;;14.13;10.87;;;;;;;;;;5058179;28;20225;-64
2022/04/25 14:45:47;;;;;;;11.97;10.33;;;;;;;;;;5057949;28;20194;-65
2022/04/25 14:48:13;;;;;;;10.23;8.60;;;;;;;;;;5057778;28;20171;-66
2022/04/25 14:56:08;;;;;;;11.20;10.00;;;;;;;;;;5057999;28;20224;-65
2022/04/25 14:58:34;;;;;;;13.03;10.60;;;;;;;;;;5059507;28;20178;-66
2022/04/25 15:01:01;;;;;;;12.03;10.13;;;;;;;;;;5058707;28;20186;-65
2022/04/25 15:03:29;;;;;;;11.57;10.17;;;;;;;;;;5056834;28;20197;-65
2022/04/25 15:05:55;;;;;;;12.67;10.30;;;;;;;;;;5038641;28;20191;-64
2022/04/25 15:08:21;;;;;;;12.17;9.20;;;;;;;;;;5056905;28;20177;-65
2022/04/25 15:10:48;;;;;;;10.67;9.50;;;;;;;;;;5038597;28;20598;-64
2022/04/25 15:13:14;;;;;;;12.60;10.60;;;;;;;;;;5056818;28;20232;-64
2022/04/25 15:15:41;;;;;;;12.73;10.70;;;;;;;;;;5038152;28;20248;-64
2022/04/25 15:18:07;;;;;;;12.27;9.83;;;;;;;;;;5056592;28;20182;-65